Date,TemperatureHighF,TemperatureAvgF,TemperatureLowF,DewpointHighF,DewpointAvgF,DewpointLowF,HumidityHigh,HumidityAvg,HumidityLow,PressureMaxIn,PressureMinIn,WindSpeedMaxMPH,WindSpeedAvgMPH,GustSpeedMaxMPH,PrecipitationSumIn
2013-5-1,71.9,53.0,42.0,49.3,43.7,38.1,88,72,43,30.48,30.32,11,1,11,0.00
2013-5-2,73.4,56.1,42.4,54.7,43.4,39.3,90,65,45,30.47,30.34,10,1,10,0.00
2013-5-3,66.3,53.9,47.1,47.5,42.9,38.5,83,68,47,30.47,30.36,18,2,18,0.00
2013-5-4,73.4,53.7,42.9,53.3,43.4,39.3,89,69,46,30.37,30.26,14,2,14,0.00
2013-5-5,60.4,50.4,45.6,45.0,41.1,37.8,83,71,56,30.29,30.23,12,2,12,0.00
2013-5-6,62.7,53.0,48.0,49.5,46.2,38.8,88,78,62,30.27,30.17,11,1,11,0.00
2013-5-7,63.1,55.0,49.8,54.2,50.4,46.4,91,85,72,30.17,30.08,14,1,14,0.00
2013-5-8,70.1,60.0,55.0,62.4,55.3,50.4,93,85,69,30.09,29.96,16,2,16,1.41
2013-5-9,77.1,61.2,53.9,63.4,54.8,50.8,91,80,55,30.00,29.90,14,0,14,13.17
2013-5-10,89.4,68.1,54.1,65.3,56.7,51.2,91,70,40,30.00,29.89,13,1,13,13.17
2013-5-11,79.3,65.4,61.7,67.4,60.0,56.5,91,83,61,29.91,29.70,14,1,14,0.55
2013-5-12,79.1,63.1,49.8,61.1,47.2,30.7,92,60,33,29.96,29.67,18,2,18,0.06
2013-5-13,74.6,54.3,40.8,43.5,33.5,26.6,80,48,30,30.10,29.96,16,2,16,0.00
2013-5-14,71.2,54.1,38.4,40.7,35.1,29.6,78,52,28,30.14,30.04,12,1,12,0.00
2013-5-15,75.3,60.8,44.9,58.6,49.3,34.2,78,66,40,30.09,29.69,18,2,18,0.00
2013-5-16,79.7,69.5,59.3,61.8,53.9,46.7,84,60,36,29.85,29.70,14,1,14,0.00
2013-5-17,84.3,68.9,55.0,57.5,46.8,40.5,79,47,31,30.20,29.83,12,1,12,0.00
2013-5-18,70.3,58.8,16.5,55.0,51.0,11.1,85,76,58,30.32,30.20,11,0,11,13.80
2013-5-19,58.8,56.7,55.0,56.8,54.0,52.0,93,91,85,30.31,30.16,12,1,12,0.72
2013-5-20,78.4,67.6,57.9,69.8,62.5,55.9,93,85,69,30.17,29.98,8,0,8,14.54
2013-5-21,95.0,78.1,63.6,73.9,67.4,61.2,92,72,49,29.98,29.85,10,2,10,14.54
2013-5-22,87.4,73.1,64.9,74.3,66.1,60.1,90,79,61,29.93,29.83,14,1,14,0.00
2013-5-23,93.0,74.8,65.6,73.2,66.2,61.8,88,76,52,29.91,29.77,22,3,22,0.22
2013-5-24,75.0,59.7,46.7,67.9,54.6,42.0,91,83,72,29.97,29.69,15,2,15,0.14
2013-5-25,61.7,52.9,45.1,48.6,42.2,31.4,88,68,47,30.03,29.91,25,4,25,0.04
2013-5-26,82.9,61.0,45.8,49.8,39.6,35.3,73,48,31,30.21,29.99,19,2,19,0.04
2013-5-27,82.9,64.3,43.8,53.0,43.8,39.2,85,52,27,30.26,30.13,12,1,12,0.04
2013-5-28,82.4,60.9,51.9,58.1,52.4,43.9,90,75,39,30.24,30.11,14,0,14,15.44
2013-5-29,86.9,71.7,57.5,69.4,62.1,54.9,91,74,50,30.13,30.02,17,1,17,14.94
2013-5-30,98.7,82.9,70.1,73.5,67.3,63.7,81,62,38,30.14,30.06,11,2,11,14.94
2013-5-31,100.0,82.7,69.8,75.3,68.0,64.5,85,63,41,30.14,30.01,10,1,10,14.94